Good Hope, Georgia
Current Conditions -  °F | °C
As of 12:55 AM on Wednesday 22 Oct 2014 (Local Time) from KWDR Reporting Station
Clear Clear  
Wind Chill: 57°   Ceiling: Unl
Heat Index: 57°   Visibility: 10mi
Dew Point: 50°   Wind: 7mph
Humidity: 75%   Direction: 330°NNW
Pressure: 30.05"   Gusts: NA
Location:  33.78°N, 83.61°W
Report Text: KWDR 220455Z AUTO 33006KT 10SM CLR 14/10 A3005 RMK AO2 T01410098
Loading
Personal Weather Stations






























Interactive Weather Map
Tropical Storm Tracking
New forecast layout! Learn more

10-Day Weather Forecast

Advertisements
Track Severe Weather on mobile